Time;durP1;ratioP1;P1;durP2;ratioP2;P2;SDS_P1;SDS_P2;PMS_P1;PMS_P2;Temp;Humidity;BMP_temperature;BMP_pressure;BME280_temperature;BME280_humidity;BME280_pressure;Samples;Min_cycle;Max_cycle;Signal;HPM_P1;HPM_P2
2022/12/07 00:00:26;;;;;;;17.27;9.30;;;5.20;99.90;;;;;;4859591;29;20101;-68
2022/12/07 00:02:53;;;;;;;15.00;9.32;;;5.20;99.90;;;;;;4862309;29;20041;-70
2022/12/07 00:05:20;;;;;;;18.95;10.10;;;5.20;99.90;;;;;;4860235;29;20120;-66
2022/12/07 00:07:46;;;;;;;15.73;9.73;;;5.10;99.90;;;;;;4862043;29;20042;-67
2022/12/07 00:10:13;;;;;;;16.80;9.55;;;5.10;99.90;;;;;;4860804;29;20450;-66
2022/12/07 00:12:40;;;;;;;18.90;9.38;;;5.10;99.90;;;;;;4862147;29;20061;-65
2022/12/07 00:15:07;;;;;;;16.88;9.55;;;5.10;99.90;;;;;;4861781;29;20482;-71
2022/12/07 00:17:33;;;;;;;19.77;10.00;;;5.10;99.90;;;;;;4860374;29;20550;-67
2022/12/07 00:20:00;;;;;;;19.33;10.05;;;5.20;99.90;;;;;;4859195;29;20038;-67
2022/12/07 00:22:27;;;;;;;16.60;9.18;;;5.10;99.90;;;;;;4861863;29;20040;-66
2022/12/07 00:24:54;;;;;;;17.90;9.23;;;5.10;99.90;;;;;;4861972;29;20124;-68
2022/12/07 00:27:21;;;;;;;18.90;9.10;;;5.00;99.90;;;;;;4862007;29;20084;-67
2022/12/07 00:29:47;;;;;;;14.57;8.45;;;5.00;99.90;;;;;;4859615;29;20120;-68
2022/12/07 00:32:14;;;;;;;20.38;9.70;;;5.00;99.90;;;;;;4861808;29;20133;-68
2022/12/07 00:34:41;;;;;;;19.83;9.30;;;5.00;99.90;;;;;;4859843;29;20041;-66
2022/12/07 00:37:08;;;;;;;17.52;9.68;;;5.00;99.90;;;;;;4858975;29;20110;-67
2022/12/07 00:39:35;;;;;;;17.60;9.02;;;5.00;99.90;;;;;;4861843;29;20080;-66
2022/12/07 00:42:01;;;;;;;17.33;9.35;;;4.90;99.90;;;;;;4861708;29;20042;-66
2022/12/07 00:44:28;;;;;;;14.70;9.55;;;4.90;99.90;;;;;;4860478;29;20125;-67
2022/12/07 00:46:55;;;;;;;17.92;8.98;;;4.90;99.90;;;;;;4861484;29;20049;-66
2022/12/07 00:49:22;;;;;;;16.48;9.00;;;4.90;99.90;;;;;;4859549;29;20076;-67
2022/12/07 00:51:49;;;;;;;19.15;9.23;;;4.80;99.90;;;;;;4861652;29;20037;-67
2022/12/07 00:54:15;;;;;;;15.45;8.32;;;4.70;99.90;;;;;;4861780;29;20053;-67
2022/12/07 00:56:42;;;;;;;19.55;9.10;;;4.70;99.90;;;;;;4861281;29;20065;-67
2022/12/07 00:59:09;;;;;;;15.98;8.82;;;4.70;99.90;;;;;;4860112;29;20069;-67
2022/12/07 01:01:36;;;;;;;24.30;9.43;;;4.70;99.90;;;;;;4861462;29;20045;-66
2022/12/07 01:04:03;;;;;;;15.45;9.57;;;4.70;99.90;;;;;;4858157;29;20465;-66
2022/12/07 01:06:30;;;;;;;16.77;8.63;;;4.70;99.90;;;;;;4859538;29;20094;-64
2022/12/07 01:08:56;;;;;;;17.15;7.93;;;4.70;99.90;;;;;;4861383;29;20080;-68
2022/12/07 01:11:23;;;;;;;20.80;9.32;;;4.70;99.90;;;;;;4858856;29;20041;-69
2022/12/07 01:13:50;;;;;;;15.13;8.77;;;4.70;99.90;;;;;;4861383;29;20077;-67
2022/12/07 01:16:17;;;;;;;17.75;8.45;;;4.70;99.90;;;;;;4860939;29;20110;-67
2022/12/07 01:18:43;;;;;;;14.98;8.60;;;4.70;99.90;;;;;;4857116;29;20493;-67
2022/12/07 01:21:10;;;;;;;18.48;8.80;;;4.60;99.90;;;;;;4859691;29;20482;-66
2022/12/07 01:23:37;;;;;;;17.88;8.95;;;4.60;99.90;;;;;;4860725;29;20091;-68
2022/12/07 01:26:03;;;;;;;13.85;8.55;;;4.60;99.90;;;;;;4858306;29;20131;-68
2022/12/07 01:28:30;;;;;;;16.55;8.50;;;4.60;99.90;;;;;;4860593;29;20041;-64
2022/12/07 01:30:57;;;;;;;14.10;8.23;;;4.50;99.90;;;;;;4860882;29;20144;-67
2022/12/07 01:33:24;;;;;;;14.77;8.80;;;4.50;99.90;;;;;;4857242;29;20442;-65
2022/12/07 01:35:50;;;;;;;15.85;8.10;;;4.40;99.90;;;;;;4860863;29;20063;-69
2022/12/07 01:38:17;;;;;;;15.15;8.23;;;4.40;99.90;;;;;;4858219;29;20052;-68
2022/12/07 01:40:44;;;;;;;17.38;8.32;;;4.40;99.90;;;;;;4858561;29;20316;-65
2022/12/07 01:43:10;;;;;;;16.70;8.90;;;4.40;99.90;;;;;;4861163;29;20041;-65
2022/12/07 01:45:37;;;;;;;16.38;8.90;;;4.40;99.90;;;;;;4860386;29;20389;-66
2022/12/07 01:48:04;;;;;;;12.48;8.43;;;4.40;99.90;;;;;;4858374;29;20047;-66
2022/12/07 01:50:31;;;;;;;11.65;8.27;;;4.30;99.90;;;;;;4860761;29;20438;-66
2022/12/07 01:52:58;;;;;;;17.30;8.90;;;4.30;99.90;;;;;;4859408;29;20060;-69
2022/12/07 01:55:25;;;;;;;17.63;8.60;;;4.30;99.90;;;;;;4860487;29;20098;-66
2022/12/07 01:57:51;;;;;;;19.23;8.85;;;4.30;99.90;;;;;;4860782;29;20038;-67
2022/12/07 02:00:18;;;;;;;18.48;9.85;;;4.20;99.90;;;;;;4859148;29;20058;-66
2022/12/07 02:02:45;;;;;;;17.02;8.85;;;4.20;99.90;;;;;;4857574;29;20486;-68
2022/12/07 02:05:11;;;;;;;16.88;9.98;;;4.20;99.90;;;;;;4860647;29;20048;-66
2022/12/07 02:07:38;;;;;;;14.15;8.65;;;4.20;99.90;;;;;;4858572;29;20049;-67
2022/12/07 02:10:05;;;;;;;15.93;8.32;;;4.20;99.90;;;;;;4859669;29;20494;-66
2022/12/07 02:12:32;;;;;;;16.77;9.15;;;4.20;99.90;;;;;;4860373;29;20481;-68
2022/12/07 02:14:58;;;;;;;14.73;9.07;;;4.20;99.90;;;;;;4860647;29;20076;-66
2022/12/07 02:17:25;;;;;;;14.52;9.05;;;4.30;99.90;;;;;;4861085;29;20057;-67
2022/12/07 02:19:52;;;;;;;13.20;8.90;;;4.30;99.90;;;;;;4860919;29;20132;-67
2022/12/07 02:22:18;;;;;;;19.15;9.30;;;4.20;99.90;;;;;;4861020;29;20097;-68
2022/12/07 02:24:45;;;;;;;18.00;9.57;;;4.30;99.90;;;;;;4845846;29;20045;-66
2022/12/07 02:27:12;;;;;;;19.20;9.38;;;4.30;99.90;;;;;;4861394;29;20145;-67
2022/12/07 02:29:38;;;;;;;13.13;8.30;;;4.30;99.90;;;;;;4860874;29;20377;-68
2022/12/07 02:32:05;;;;;;;16.75;10.10;;;4.20;99.90;;;;;;4860899;29;20089;-64
2022/12/07 02:34:32;;;;;;;16.27;9.55;;;4.30;99.90;;;;;;4859758;29;20124;-65
2022/12/07 02:36:58;;;;;;;15.68;9.32;;;4.30;99.90;;;;;;4860884;29;20076;-65
2022/12/07 02:39:25;;;;;;;19.45;9.73;;;4.30;99.90;;;;;;4862719;29;20136;-68
2022/12/07 02:41:52;;;;;;;16.45;8.95;;;4.20;99.90;;;;;;4863986;29;20072;-67
2022/12/07 02:44:19;;;;;;;14.02;8.52;;;4.20;99.90;;;;;;4864563;29;20132;-67
2022/12/07 02:46:45;;;;;;;23.13;9.68;;;4.20;99.90;;;;;;4862885;29;20451;-65
2022/12/07 02:49:12;;;;;;;18.52;8.88;;;4.20;99.90;;;;;;4863355;29;20109;-66
2022/12/07 02:51:39;;;;;;;15.80;8.95;;;4.20;99.90;;;;;;4864574;29;20512;-70
2022/12/07 02:54:06;;;;;;;15.13;8.85;;;4.20;99.90;;;;;;4864020;29;20565;-67
2022/12/07 02:56:32;;;;;;;20.27;9.52;;;4.20;99.90;;;;;;4862809;29;20133;-66
2022/12/07 02:58:59;;;;;;;16.58;8.32;;;4.20;99.90;;;;;;4864476;29;20077;-66
2022/12/07 03:01:26;;;;;;;15.75;9.23;;;4.20;99.90;;;;;;4864254;29;20053;-67
2022/12/07 03:03:53;;;;;;;15.57;9.00;;;4.20;99.90;;;;;;4863344;29;20060;-66
2022/12/07 03:06:20;;;;;;;16.08;9.35;;;4.20;99.90;;;;;;4864131;29;20364;-67
2022/12/07 03:08:46;;;;;;;17.27;9.27;;;4.20;99.90;;;;;;4863697;29;20097;-68
2022/12/07 03:11:13;;;;;;;18.98;9.18;;;4.20;99.90;;;;;;4864061;29;20489;-65
2022/12/07 03:13:47;;;;;;;17.98;9.65;;;4.20;99.90;;;;;;4864192;29;20124;-65
2022/12/07 03:16:14;;;;;;;20.10;9.30;;;4.20;99.90;;;;;;4863161;29;20059;-67
2022/12/07 03:18:40;;;;;;;18.42;9.20;;;4.20;99.90;;;;;;4862752;29;20045;-68
2022/12/07 03:21:07;;;;;;;17.45;9.48;;;4.10;99.90;;;;;;4863640;29;20101;-66
2022/12/07 03:23:34;;;;;;;14.70;9.52;;;4.10;99.90;;;;;;4864076;29;20441;-67
2022/12/07 03:26:00;;;;;;;13.73;9.40;;;4.10;99.90;;;;;;4863623;29;20098;-67
2022/12/07 03:28:27;;;;;;;17.40;9.73;;;4.10;99.90;;;;;;4864111;29;20056;-64
2022/12/07 03:30:54;;;;;;;14.90;9.23;;;4.10;99.90;;;;;;4849300;29;20042;-66
2022/12/07 03:33:21;;;;;;;18.92;9.85;;;4.20;99.90;;;;;;4844771;29;20058;-69
2022/12/07 03:35:47;;;;;;;14.48;8.80;;;4.30;99.90;;;;;;4845096;29;20538;-65
2022/12/07 03:38:14;;;;;;;13.25;8.73;;;4.40;99.90;;;;;;4845335;29;20042;-67
2022/12/07 03:40:41;;;;;;;16.55;9.52;;;4.40;99.90;;;;;;4845240;29;20463;-67
2022/12/07 03:43:08;;;;;;;14.00;9.25;;;4.40;99.90;;;;;;4843752;29;20130;-66
2022/12/07 03:45:34;;;;;;;19.27;10.55;;;4.40;99.90;;;;;;4844818;29;20102;-67
2022/12/07 03:48:01;;;;;;;15.55;9.40;;;4.40;99.90;;;;;;4859218;29;20524;-65
2022/12/07 03:50:28;;;;;;;16.23;9.23;;;4.40;99.90;;;;;;4863087;29;20053;-68
2022/12/07 03:52:54;;;;;;;16.15;9.45;;;4.40;99.90;;;;;;4848045;29;20478;-67
2022/12/07 03:55:21;;;;;;;21.98;9.40;;;4.40;99.90;;;;;;4844679;29;20105;-66
2022/12/07 03:57:48;;;;;;;21.08;9.70;;;4.30;99.90;;;;;;4844584;29;20046;-66
2022/12/07 04:00:14;;;;;;;14.30;9.52;;;4.40;99.90;;;;;;4861221;29;20124;-66
2022/12/07 04:02:41;;;;;;;19.63;10.43;;;4.50;99.90;;;;;;4854869;29;20375;-67
2022/12/07 04:05:08;;;;;;;17.55;9.90;;;4.50;99.90;;;;;;4844444;29;20120;-65
2022/12/07 04:07:35;;;;;;;17.25;9.57;;;4.50;99.90;;;;;;4844414;29;20069;-64
2022/12/07 04:10:02;;;;;;;15.05;9.30;;;4.50;99.90;;;;;;4844625;29;20046;-64
2022/12/07 04:12:28;;;;;;;17.55;9.70;;;4.50;99.90;;;;;;4844529;29;20052;-67
2022/12/07 04:14:55;;;;;;;15.88;9.32;;;4.50;99.90;;;;;;4844543;29;20378;-65
2022/12/07 04:17:22;;;;;;;17.30;10.55;;;4.40;99.90;;;;;;4850989;29;20082;-68
2022/12/07 04:19:49;;;;;;;16.13;9.63;;;4.40;99.90;;;;;;4862840;29;20083;-68
2022/12/07 04:22:15;;;;;;;16.73;9.27;;;4.40;99.90;;;;;;4861489;29;20041;-68
2022/12/07 04:24:42;;;;;;;12.55;9.05;;;4.40;99.90;;;;;;4862981;29;20041;-67
2022/12/07 04:27:09;;;;;;;15.25;10.10;;;4.50;99.90;;;;;;4861673;29;20041;-65
2022/12/07 04:29:35;;;;;;;16.70;9.55;;;4.40;99.90;;;;;;4862324;29;20073;-67
2022/12/07 04:32:02;;;;;;;17.40;10.30;;;4.40;99.90;;;;;;4858334;29;20042;-66
2022/12/07 04:34:29;;;;;;;17.02;10.32;;;4.30;99.90;;;;;;4844223;29;20050;-67
2022/12/07 04:36:56;;;;;;;14.93;9.48;;;4.30;99.90;;;;;;4844026;29;20402;-65
2022/12/07 04:39:22;;;;;;;13.15;9.60;;;4.30;99.90;;;;;;4844138;29;20042;-67
2022/12/07 04:41:49;;;;;;;17.70;10.63;;;4.30;99.90;;;;;;4853285;29;20106;-67
2022/12/07 04:44:16;;;;;;;18.48;9.82;;;4.20;99.90;;;;;;4862658;29;20094;-65
2022/12/07 04:46:42;;;;;;;16.67;10.85;;;4.30;99.90;;;;;;4862370;29;20041;-66
2022/12/07 04:49:09;;;;;;;13.93;9.75;;;4.20;99.90;;;;;;4862437;29;20038;-68
2022/12/07 04:51:36;;;;;;;19.05;9.68;;;4.20;99.90;;;;;;4860885;29;20053;-66
2022/12/07 04:54:03;;;;;;;14.70;9.52;;;4.20;99.90;;;;;;4862458;29;20049;-69
2022/12/07 04:56:30;;;;;;;18.15;10.85;;;4.30;99.90;;;;;;4850337;29;20449;-65
2022/12/07 04:58:56;;;;;;;17.27;9.68;;;4.20;99.90;;;;;;4844231;29;20053;-67
2022/12/07 05:01:23;;;;;;;14.07;9.18;;;4.20;99.90;;;;;;4851893;29;20041;-69
2022/12/07 05:03:50;;;;;;;19.92;9.48;;;4.20;99.90;;;;;;4859993;29;20077;-67
2022/12/07 05:06:17;;;;;;;20.13;9.52;;;4.30;99.90;;;;;;4862198;29;20045;-67
2022/12/07 05:08:43;;;;;;;14.82;8.68;;;4.30;99.90;;;;;;4862534;29;20046;-66
2022/12/07 05:11:37;;;;;;;19.23;9.82;;;4.40;99.90;;;;;;4862003;29;20045;-67
2022/12/07 05:13:57;;;;;;;16.88;8.98;;;4.40;99.90;;;;;;4860150;29;20045;-68
2022/12/07 05:16:24;;;;;;;14.20;9.18;;;4.40;99.90;;;;;;4861165;29;20397;-67
2022/12/07 05:18:50;;;;;;;13.68;8.68;;;4.30;99.90;;;;;;4862020;29;20045;-64
2022/12/07 05:21:17;;;;;;;14.80;8.93;;;4.40;99.90;;;;;;4859249;29;20504;-66
2022/12/07 05:23:44;;;;;;;13.10;8.65;;;4.40;99.90;;;;;;4861769;29;20053;-68
2022/12/07 05:26:11;;;;;;;16.90;9.23;;;4.40;99.90;;;;;;4861593;29;20462;-67
2022/12/07 05:28:37;;;;;;;16.25;9.68;;;4.40;99.90;;;;;;4861510;29;20042;-67
2022/12/07 05:31:04;;;;;;;14.38;8.57;;;4.50;99.90;;;;;;4836928;29;20144;-67
2022/12/07 05:33:31;;;;;;;16.13;9.05;;;4.50;99.90;;;;;;4843520;29;20118;-66
2022/12/07 05:35:57;;;;;;;14.05;8.52;;;4.40;99.90;;;;;;4843599;29;20045;-68
2022/12/07 05:38:27;;;;;;;16.35;8.90;;;4.40;99.90;;;;;;4850998;29;20103;-67
2022/12/07 05:40:54;;;;;;;18.45;9.27;;;4.40;99.90;;;;;;4860389;29;20534;-68
2022/12/07 05:43:21;;;;;;;14.18;8.93;;;4.40;99.90;;;;;;4860253;29;20056;-67
2022/12/07 05:45:48;;;;;;;12.30;8.18;;;4.40;99.90;;;;;;4859409;29;20045;-65
2022/12/07 05:48:15;;;;;;;13.27;8.20;;;4.50;99.90;;;;;;4860907;29;20106;-70
2022/12/07 05:50:42;;;;;;;10.85;8.07;;;4.50;99.90;;;;;;4861330;29;20050;-67
2022/12/07 05:53:10;;;;;;;16.73;8.48;;;4.50;99.90;;;;;;4860230;29;20504;-67
2022/12/07 05:55:37;;;;;;;14.35;7.93;;;4.50;99.90;;;;;;4858849;29;20049;-68
2022/12/07 06:00:49;;;;;;;13.93;7.40;;;4.40;99.90;;;;;;4848383;29;20046;-68
2022/12/07 06:03:17;;;;;;;14.93;7.93;;;4.40;99.90;;;;;;4861241;29;20299;-68
2022/12/07 06:05:44;;;;;;;10.45;7.47;;;4.40;99.90;;;;;;4859682;29;20080;-66
2022/12/07 06:08:10;;;;;;;11.52;7.30;;;4.40;99.90;;;;;;4851834;29;20058;-68
2022/12/07 06:10:37;;;;;;;12.98;7.20;;;4.40;99.90;;;;;;4858584;29;20041;-67
2022/12/07 06:13:04;;;;;;;15.05;8.93;;;4.40;99.90;;;;;;4860997;29;20482;-67
2022/12/07 06:15:31;;;;;;;18.25;8.43;;;4.40;99.90;;;;;;4862199;29;20045;-68
2022/12/07 06:17:57;;;;;;;13.95;7.57;;;4.40;99.90;;;;;;4863884;29;20046;-65
2022/12/07 06:20:24;;;;;;;15.43;8.30;;;4.30;99.90;;;;;;4864668;29;20561;-66
2022/12/07 06:22:51;;;;;;;19.33;9.73;;;4.40;99.90;;;;;;4856834;29;20490;-65
2022/12/07 06:25:18;;;;;;;23.02;12.23;;;4.40;99.90;;;;;;4848948;29;20074;-67
2022/12/07 06:27:44;;;;;;;14.32;8.68;;;4.40;99.90;;;;;;4863363;29;20069;-67
2022/12/07 06:30:11;;;;;;;16.33;8.45;;;4.40;99.90;;;;;;4850547;29;20050;-64
2022/12/07 06:32:38;;;;;;;18.48;9.45;;;4.40;99.90;;;;;;4844755;29;20348;-65
2022/12/07 06:35:04;;;;;;;26.08;12.00;;;4.30;99.90;;;;;;4845674;29;20482;-68
2022/12/07 06:37:31;;;;;;;16.20;9.07;;;4.30;99.90;;;;;;4846428;29;20046;-67
2022/12/07 06:39:58;;;;;;;22.45;10.25;;;4.30;99.90;;;;;;4846024;29;20113;-66
2022/12/07 06:42:25;;;;;;;19.75;8.43;;;4.30;99.90;;;;;;4848809;29;20073;-65
2022/12/07 06:44:52;;;;;;;23.20;12.55;;;4.30;99.90;;;;;;4846103;29;20482;-66
2022/12/07 06:47:18;;;;;;;18.27;10.10;;;4.40;99.90;;;;;;4851215;29;20469;-64
2022/12/07 06:50:05;;;;;;;14.82;9.68;;;4.40;99.90;;;;;;4851446;29;20122;-69
2022/12/07 06:52:32;;;;;;;25.67;12.30;;;4.40;99.90;;;;;;4863360;29;20073;-66
2022/12/07 06:54:59;;;;;;;17.52;8.60;;;4.40;99.90;;;;;;4854608;29;20034;-64
2022/12/07 06:57:26;;;;;;;13.25;7.65;;;4.40;99.90;;;;;;4862074;29;20069;-66
2022/12/07 06:59:52;;;;;;;14.18;8.82;;;4.40;99.90;;;;;;4852969;29;20045;-67
2022/12/07 07:02:19;;;;;;;19.40;10.57;;;4.40;99.90;;;;;;4849984;29;20124;-66
2022/12/07 07:04:46;;;;;;;14.77;8.35;;;4.40;99.90;;;;;;4844954;29;20083;-67
2022/12/07 07:07:13;;;;;;;13.93;7.18;;;4.50;99.90;;;;;;4843920;29;20046;-67
2022/12/07 07:09:39;;;;;;;11.45;7.40;;;4.50;99.90;;;;;;4845254;29;20065;-64
2022/12/07 07:12:06;;;;;;;14.00;8.50;;;4.40;99.90;;;;;;4855635;29;20042;-67
2022/12/07 07:14:33;;;;;;;14.95;8.93;;;4.40;99.90;;;;;;4858911;29;20049;-66
2022/12/07 07:17:00;;;;;;;19.85;8.27;;;4.50;99.90;;;;;;4848882;29;20102;-67
2022/12/07 07:19:26;;;;;;;13.55;7.65;;;4.50;99.90;;;;;;4852666;29;20054;-67
2022/12/07 07:21:53;;;;;;;14.15;7.35;;;4.50;99.90;;;;;;4844190;29;20056;-68
2022/12/07 07:24:20;;;;;;;10.00;6.20;;;4.50;99.90;;;;;;4843765;29;20110;-68
2022/12/07 07:26:47;;;;;;;12.65;6.82;;;4.50;99.90;;;;;;4852478;29;20066;-66
2022/12/07 07:29:14;;;;;;;12.95;7.57;;;4.40;99.90;;;;;;4845535;29;20375;-65
2022/12/07 07:31:40;;;;;;;12.88;7.60;;;4.40;99.90;;;;;;4848064;29;20046;-66
2022/12/07 07:34:07;;;;;;;12.93;7.40;;;4.40;99.90;;;;;;4857014;29;20090;-65
2022/12/07 07:36:34;;;;;;;14.32;7.45;;;4.40;99.90;;;;;;4856551;29;20367;-66
2022/12/07 07:39:01;;;;;;;15.60;7.40;;;4.40;99.90;;;;;;4862579;29;20163;-66
2022/12/07 07:41:28;;;;;;;12.45;7.57;;;4.40;99.90;;;;;;4845439;29;20049;-66
2022/12/07 07:43:54;;;;;;;13.30;7.32;;;4.40;99.90;;;;;;4847798;29;20046;-69
2022/12/07 07:46:21;;;;;;;13.30;7.68;;;4.40;99.90;;;;;;4854408;29;20042;-66
2022/12/07 07:48:48;;;;;;;11.73;7.25;;;4.40;99.90;;;;;;4858566;29;20048;-67
2022/12/07 07:51:15;;;;;;;11.45;7.50;;;4.40;99.90;;;;;;4843879;29;20044;-68
2022/12/07 07:53:41;;;;;;;13.50;6.75;;;4.30;99.90;;;;;;4853968;29;20048;-68
2022/12/07 07:56:08;;;;;;;13.52;6.88;;;4.40;99.90;;;;;;4859221;29;20041;-68
2022/12/07 07:58:39;;;;;;;10.52;5.85;;;4.30;99.90;;;;;;4854852;29;20045;-69
2022/12/07 08:01:05;;;;;;;14.93;6.25;;;4.30;99.90;;;;;;4857756;29;20451;-69
2022/12/07 08:03:32;;;;;;;13.98;6.50;;;4.30;99.90;;;;;;4850975;29;20069;-69
2022/12/07 08:05:59;;;;;;;11.65;5.97;;;4.40;99.90;;;;;;4860693;29;20456;-68
2022/12/07 08:08:25;;;;;;;12.20;7.05;;;4.30;99.90;;;;;;4854272;29;20081;-68
2022/12/07 08:10:52;;;;;;;10.73;5.72;;;4.40;99.90;;;;;;4855142;29;20084;-69
2022/12/07 08:13:19;;;;;;;14.23;6.00;;;4.40;99.90;;;;;;4853597;29;20498;-69
2022/12/07 08:15:50;;;;;;;15.73;6.88;;;4.40;99.90;;;;;;4854873;29;20081;-68
2022/12/07 08:18:17;;;;;;;13.30;6.63;;;4.40;99.90;;;;;;4859914;29;20063;-67
2022/12/07 08:20:44;;;;;;;13.00;7.97;;;4.50;99.90;;;;;;4853768;29;20045;-68
2022/12/07 08:23:11;;;;;;;13.05;6.72;;;4.50;99.90;;;;;;4849585;29;20177;-70
2022/12/07 08:25:38;;;;;;;13.02;7.00;;;4.50;99.90;;;;;;4858020;29;20045;-67
2022/12/07 08:28:04;;;;;;;14.13;8.13;;;4.50;99.90;;;;;;4861661;29;20501;-67
2022/12/07 08:30:34;;;;;;;13.35;7.80;;;4.50;99.90;;;;;;4860321;29;20046;-67
2022/12/07 08:33:00;;;;;;;20.35;8.40;;;4.60;99.90;;;;;;4859234;29;20568;-68
2022/12/07 08:35:27;;;;;;;18.02;8.13;;;4.60;99.90;;;;;;4852933;29;20129;-68
2022/12/07 08:37:54;;;;;;;15.95;8.15;;;4.70;99.90;;;;;;4850026;29;20057;-70
2022/12/07 08:40:21;;;;;;;14.45;10.00;;;4.70;99.90;;;;;;4860257;29;20616;-69
2022/12/07 08:42:47;;;;;;;13.82;7.32;;;4.70;99.90;;;;;;4845681;29;20106;-69
2022/12/07 08:45:14;;;;;;;14.55;7.07;;;4.60;99.90;;;;;;4870291;29;20050;-67
2022/12/07 08:47:41;;;;;;;14.30;7.35;;;4.50;99.90;;;;;;4857905;29;20573;-69
2022/12/07 08:50:08;;;;;;;10.82;8.13;;;4.40;99.90;;;;;;4857000;29;20404;-68
2022/12/07 08:52:34;;;;;;;13.45;9.30;;;4.40;99.90;;;;;;4847374;29;20114;-66
2022/12/07 08:55:01;;;;;;;17.90;9.80;;;4.40;99.90;;;;;;4847915;29;20113;-67
2022/12/07 08:57:28;;;;;;;13.48;7.90;;;4.40;99.90;;;;;;4848879;29;20470;-63
2022/12/07 08:59:55;;;;;;;13.65;6.80;;;4.40;99.90;;;;;;4853329;29;20057;-65
2022/12/07 09:02:21;;;;;;;12.10;7.00;;;4.40;99.90;;;;;;4853549;29;20042;-65
2022/12/07 09:04:48;;;;;;;10.20;6.82;;;4.40;99.90;;;;;;4851529;29;20045;-66
2022/12/07 09:07:15;;;;;;;11.27;6.75;;;4.40;99.90;;;;;;4848632;29;20447;-65
2022/12/07 09:09:42;;;;;;;10.50;7.00;;;4.40;99.90;;;;;;4851457;29;20066;-66
2022/12/07 09:12:10;;;;;;;11.60;5.82;;;4.40;99.90;;;;;;4841500;29;20129;-67
2022/12/07 09:14:36;;;;;;;10.43;5.70;;;4.40;99.90;;;;;;4856826;29;20460;-67
2022/12/07 09:17:03;;;;;;;12.07;7.15;;;4.40;99.90;;;;;;4859250;29;20045;-66
2022/12/07 09:19:30;;;;;;;13.88;7.20;;;4.40;99.90;;;;;;4859878;29;20399;-66
2022/12/07 09:21:57;;;;;;;13.68;6.70;;;4.40;99.90;;;;;;4850760;29;20081;-64
2022/12/07 09:24:23;;;;;;;13.48;6.90;;;4.40;99.90;;;;;;4848790;29;20044;-66
2022/12/07 09:26:50;;;;;;;14.07;6.63;;;4.40;99.90;;;;;;4847141;29;20045;-67
2022/12/07 09:29:17;;;;;;;11.10;6.03;;;4.30;99.90;;;;;;4854335;29;20124;-66
2022/12/07 09:31:44;;;;;;;13.40;6.28;;;4.30;99.90;;;;;;4842299;29;20042;-64
2022/12/07 09:34:10;;;;;;;13.70;5.57;;;4.30;99.90;;;;;;4866508;29;20057;-68
2022/12/07 09:36:37;;;;;;;12.13;5.90;;;4.30;99.90;;;;;;4847671;29;20041;-64
2022/12/07 09:39:04;;;;;;;10.55;6.25;;;4.30;99.90;;;;;;4849341;29;20406;-68
2022/12/07 09:41:31;;;;;;;17.75;7.03;;;4.30;99.90;;;;;;4859238;29;20409;-67
2022/12/07 09:43:58;;;;;;;10.52;6.30;;;4.40;99.90;;;;;;4859159;29;20163;-66
2022/12/07 09:46:25;;;;;;;11.30;6.13;;;4.40;99.90;;;;;;4841700;29;20494;-67
2022/12/07 09:48:52;;;;;;;15.63;6.45;;;4.30;99.90;;;;;;4842161;29;20044;-67
2022/12/07 09:51:19;;;;;;;11.18;6.57;;;4.30;99.90;;;;;;4845456;29;20451;-67
2022/12/07 09:53:49;;;;;;;9.73;5.55;;;4.30;99.90;;;;;;4859021;29;20049;-69
2022/12/07 09:56:16;;;;;;;14.27;6.43;;;4.30;99.90;;;;;;4854412;29;20121;-68
2022/12/07 09:58:42;;;;;;;13.85;6.70;;;4.20;99.90;;;;;;4859653;29;20535;-66
2022/12/07 10:01:10;;;;;;;11.55;5.80;;;4.20;99.90;;;;;;4853679;29;20129;-65
2022/12/07 10:03:36;;;;;;;13.63;6.32;;;4.20;99.90;;;;;;4853746;29;20045;-67
2022/12/07 10:06:03;;;;;;;13.68;6.00;;;4.20;99.90;;;;;;4851060;29;20102;-67
2022/12/07 10:08:30;;;;;;;13.93;7.05;;;4.20;99.90;;;;;;4842959;29;20158;-66
2022/12/07 10:10:56;;;;;;;16.50;6.70;;;4.30;99.90;;;;;;4857000;29;20042;-69
2022/12/07 10:13:23;;;;;;;13.15;6.65;;;4.30;99.90;;;;;;4841567;29;20074;-66
2022/12/07 10:15:51;;;;;;;14.02;6.57;;;4.30;99.90;;;;;;4850337;29;20168;-65
2022/12/07 10:18:18;;;;;;;9.48;6.40;;;4.40;99.90;;;;;;4850203;29;20053;-68
2022/12/07 10:20:45;;;;;;;11.57;6.25;;;4.40;99.90;;;;;;4858915;29;20573;-65
2022/12/07 10:23:12;;;;;;;13.00;6.68;;;4.30;99.90;;;;;;4851517;29;20054;-67
2022/12/07 10:25:40;;;;;;;14.93;6.28;;;4.40;99.90;;;;;;4845306;29;20124;-66
2022/12/07 10:28:07;;;;;;;10.60;6.03;;;4.40;99.90;;;;;;4841483;29;20040;-67
2022/12/07 10:30:34;;;;;;;10.77;5.72;;;4.40;99.90;;;;;;4852726;29;20390;-67
2022/12/07 10:33:00;;;;;;;13.82;6.97;;;4.40;99.90;;;;;;4841291;29;20050;-68
2022/12/07 10:35:27;;;;;;;9.98;6.38;;;4.40;99.90;;;;;;4849889;29;20102;-67
2022/12/07 10:37:54;;;;;;;11.68;6.88;;;4.40;99.90;;;;;;4841901;29;20041;-64
2022/12/07 10:40:21;;;;;;;12.25;6.63;;;4.40;99.90;;;;;;4850604;29;20167;-66
2022/12/07 10:42:48;;;;;;;14.43;7.18;;;4.40;99.90;;;;;;4841745;29;20054;-66
2022/12/07 10:45:15;;;;;;;12.57;7.28;;;4.40;99.90;;;;;;4850412;29;20496;-65
2022/12/07 10:47:42;;;;;;;20.60;10.73;;;4.40;99.90;;;;;;4859879;29;20048;-67
2022/12/07 10:50:09;;;;;;;23.88;11.38;;;4.40;99.90;;;;;;4859889;29;20041;-70
2022/12/07 10:52:35;;;;;;;22.23;10.70;;;4.40;99.90;;;;;;4858384;29;20106;-67
2022/12/07 10:55:02;;;;;;;13.32;7.90;;;4.40;99.90;;;;;;4857119;29;20140;-67
2022/12/07 10:57:29;;;;;;;14.50;6.82;;;4.50;99.90;;;;;;4841656;29;20050;-66
2022/12/07 10:59:56;;;;;;;13.80;6.60;;;4.50;99.90;;;;;;4858860;29;20049;-67
2022/12/07 11:02:23;;;;;;;13.40;7.15;;;4.50;99.90;;;;;;4863026;29;20053;-69
2022/12/07 11:04:50;;;;;;;12.80;6.68;;;4.50;99.90;;;;;;4861880;29;20037;-66
2022/12/07 11:07:17;;;;;;;12.48;6.28;;;4.50;99.90;;;;;;4863067;29;20397;-68
2022/12/07 11:09:44;;;;;;;13.75;7.10;;;4.50;99.90;;;;;;4862779;29;20124;-66
2022/12/07 11:12:30;;;;;;;11.23;6.95;;;4.50;99.90;;;;;;4848258;29;20067;-65
2022/12/07 11:14:57;;;;;;;11.38;6.70;;;4.50;99.90;;;;;;4851882;29;20397;-65
2022/12/07 11:17:24;;;;;;;15.68;8.02;;;4.60;99.90;;;;;;4861324;29;20064;-66
2022/12/07 11:19:51;;;;;;;13.80;8.30;;;4.60;99.90;;;;;;4862731;29;20049;-67
2022/12/07 11:22:18;;;;;;;13.57;7.03;;;4.60;99.90;;;;;;4858510;29;20046;-67
2022/12/07 11:24:44;;;;;;;16.77;7.75;;;4.60;99.90;;;;;;4845391;29;20562;-66
2022/12/07 11:27:11;;;;;;;11.93;7.32;;;4.70;99.90;;;;;;4845102;29;20042;-66
2022/12/07 11:29:38;;;;;;;19.90;8.68;;;4.70;99.90;;;;;;4859577;29;20052;-67
2022/12/07 11:32:06;;;;;;;14.88;7.75;;;4.80;99.90;;;;;;4860429;29;20044;-69
2022/12/07 11:34:33;;;;;;;14.90;7.82;;;4.80;99.90;;;;;;4846074;29;20086;-67
2022/12/07 11:37:00;;;;;;;14.68;7.97;;;4.80;99.90;;;;;;4860269;29;20061;-67
2022/12/07 11:39:27;;;;;;;13.60;7.95;;;4.80;99.90;;;;;;4852430;29;20054;-66
2022/12/07 11:41:53;;;;;;;14.50;7.55;;;4.80;99.90;;;;;;4858730;29;20608;-66
2022/12/07 11:44:20;;;;;;;13.73;7.75;;;4.70;99.90;;;;;;4848442;29;20071;-66
2022/12/07 11:46:53;;;;;;;12.55;7.00;;;4.80;99.90;;;;;;4856604;29;20068;-67
2022/12/07 11:49:20;;;;;;;12.77;6.47;;;4.70;99.90;;;;;;4849604;29;20107;-65
2022/12/07 11:51:47;;;;;;;12.07;6.63;;;4.70;99.90;;;;;;4846977;29;20045;-68
2022/12/07 11:54:13;;;;;;;12.32;6.43;;;4.70;99.90;;;;;;4858748;29;20046;-65
2022/12/07 11:56:40;;;;;;;10.40;6.72;;;4.70;99.90;;;;;;4851155;29;20088;-66
2022/12/07 11:59:07;;;;;;;12.57;7.00;;;4.70;99.90;;;;;;4843755;29;20055;-65
2022/12/07 12:01:34;;;;;;;12.40;6.90;;;4.70;99.90;;;;;;4850384;29;20485;-64
2022/12/07 12:04:00;;;;;;;13.60;7.25;;;4.60;99.90;;;;;;4860845;29;20082;-66
2022/12/07 12:06:27;;;;;;;15.63;7.13;;;4.60;99.90;;;;;;4855950;29;20163;-67
2022/12/07 12:08:54;;;;;;;13.45;7.30;;;4.60;99.90;;;;;;4854561;29;20056;-68
2022/12/07 12:11:41;;;;;;;12.40;7.63;;;4.60;99.90;;;;;;4841911;29;20042;-66
2022/12/07 12:14:08;;;;;;;14.95;7.30;;;4.70;99.90;;;;;;4853425;29;20042;-68
2022/12/07 12:16:54;;;;;;;12.18;6.40;;;4.80;99.90;;;;;;4842980;29;20053;-67
2022/12/07 12:19:21;;;;;;;11.70;7.03;;;4.90;99.90;;;;;;4850902;29;20073;-67
2022/12/07 12:21:48;;;;;;;11.88;6.25;;;4.90;99.90;;;;;;4845707;29;20054;-66
2022/12/07 12:24:17;;;;;;;10.38;6.70;;;5.00;99.90;;;;;;4849821;29;20045;-67
2022/12/07 12:26:44;;;;;;;12.90;8.15;;;5.00;99.90;;;;;;4848700;29;20422;-67
2022/12/07 12:29:10;;;;;;;12.00;7.10;;;5.10;99.90;;;;;;4849489;29;20052;-69
2022/12/07 12:31:38;;;;;;;16.10;7.90;;;5.20;99.90;;;;;;4845104;29;20046;-68
2022/12/07 12:34:06;;;;;;;10.77;6.53;;;5.20;99.90;;;;;;4845089;29;20065;-67
2022/12/07 12:36:32;;;;;;;12.18;7.07;;;5.20;99.90;;;;;;4858939;29;20053;-66
2022/12/07 12:38:59;;;;;;;11.63;6.70;;;5.20;99.90;;;;;;4843574;29;20082;-67
2022/12/07 12:41:26;;;;;;;14.57;7.35;;;5.20;99.90;;;;;;4857702;29;20055;-65
2022/12/07 12:43:53;;;;;;;14.70;6.97;;;5.20;99.90;;;;;;4858040;29;20130;-66
2022/12/07 12:46:20;;;;;;;11.90;7.68;;;5.20;99.90;;;;;;4846871;29;20090;-67